CST,Max TemperatureF,Mean TemperatureF,Min TemperatureF,Max Dew PointF,MeanDew PointF,Min DewpointF,Max Humidity, Mean Humidity, Min Humidity, Max Sea Level PressureIn, Mean Sea Level PressureIn, Min Sea Level PressureIn, Max VisibilityMiles, Mean VisibilityMiles, Min VisibilityMiles, Max Wind SpeedMPH, Mean Wind SpeedMPH, Max Gust SpeedMPH,PrecipitationIn, CloudCover, Events, WindDirDegrees
2012-12-1,73,59,45,50,47,43,93,67,41,30.34,30.28,30.24,10,8,4,12,2,15,0.00,3,,148
2012-12-2,74,59,44,55,48,42,92,69,46,30.35,30.28,30.23,10,10,8,12,2,15,0.00,0,,181
2012-12-3,75,60,45,55,50,43,93,71,49,30.30,30.24,30.19,10,9,6,14,2,18,0.00,1,,184
2012-12-4,71,60,49,61,56,47,96,85,73,30.31,30.24,30.19,10,10,7,13,2,18,T,6,,177
2012-12-5,69,63,56,61,58,52,100,82,63,30.23,30.17,30.09,10,8,0,6,2,10,0.00,6,Fog,83
2012-12-6,74,63,51,54,51,49,93,70,47,30.12,30.06,29.99,10,10,7,12,3,16,0.00,2,,103
2012-12-7,67,62,56,56,55,54,93,81,68,30.06,30.00,29.95,10,9,5,9,3,13,0.00,7,,137
2012-12-8,66,62,58,63,59,55,97,89,81,30.03,29.99,29.94,8,4,0,8,1,10,0.13,6,Fog-Rain,137
2012-12-9,72,65,58,63,58,56,100,81,61,30.08,30.00,29.89,10,5,0,14,6,22,T,7,Fog,162
2012-12-10,68,56,43,63,57,37,100,88,76,29.96,29.82,29.73,10,5,0,16,8,23,1.76,8,Fog-Rain-Thunderstorm,242
2012-12-11,43,41,38,36,31,29,82,70,57,30.20,30.09,29.96,10,9,6,13,5,20,0.00,4,,353
2012-12-12,56,47,38,36,31,27,76,63,49,30.29,30.22,30.18,10,10,10,6,4,8,0.00,1,,1
2012-12-13,61,47,33,39,34,28,86,63,39,30.38,30.31,30.27,10,10,10,7,1,13,0.00,0,,80
2012-12-14,60,48,35,43,39,33,92,72,51,30.35,30.26,30.16,10,10,6,9,2,13,0.00,0,,118
2012-12-15,63,57,50,55,49,42,84,73,62,30.21,30.09,30.00,10,10,10,13,5,21,0.00,7,,155
2012-12-16,64,61,57,61,58,54,100,92,84,29.98,29.93,29.85,10,5,0,17,5,26,1.61,8,Fog-Rain,162
2012-12-17,64,59,54,58,56,50,100,87,73,29.84,29.78,29.71,10,9,5,12,5,16,0.03,6,Rain,196
2012-12-18,64,52,39,48,39,31,92,61,30,30.01,29.96,29.83,10,8,1,12,2,17,0.00,0,,279
2012-12-19,70,55,39,45,41,37,92,62,32,30.11,30.03,29.96,10,10,9,12,2,15,0.00,0,,162
2012-12-20,66,53,40,63,48,23,93,70,47,30.08,29.84,29.72,10,7,0,24,11,36,0.86,6,Fog-Rain-Thunderstorm,202
2012-12-21,49,40,31,23,16,12,56,40,23,30.33,30.21,30.09,10,10,10,21,10,31,0.00,0,,300
2012-12-22,56,43,29,29,19,12,75,48,20,30.39,30.30,30.22,10,10,10,10,3,13,0.00,0,,315
2012-12-23,56,44,32,46,33,28,89,64,38,30.22,30.13,29.99,10,10,10,12,3,18,0.05,5,,172
2012-12-24,69,57,44,59,51,42,96,71,45,29.99,29.90,29.83,10,8,1,16,4,22,0.69,6,Rain-Thunderstorm,195
2012-12-25,58,51,44,56,50,42,100,93,86,29.96,29.78,29.49,10,4,0,15,5,24,1.93,7,Fog-Rain-Thunderstorm,85
2012-12-26,60,47,34,57,35,27,93,80,67,30.14,29.79,29.49,10,10,6,22,10,32,T,8,Rain,264
2012-12-27,41,37,32,30,29,27,85,75,64,30.19,30.13,30.09,10,9,6,15,3,20,0.00,5,,337
2012-12-28,49,41,33,43,38,30,92,74,56,30.09,29.93,29.82,10,6,2,13,2,20,0.68,7,Rain,122
2012-12-29,45,38,30,43,33,23,92,76,59,30.38,30.08,29.81,10,8,2,20,10,26,0.02,7,Rain,302
2012-12-30,49,38,27,31,24,22,82,58,34,30.52,30.43,30.36,10,9,6,10,3,17,0.00,0,,340
2012-12-31,53,43,33,43,33,27,75,60,44,30.38,30.27,30.10,10,10,6,10,3,15,0.00,4,,148